DLH8EJ ENBR-EDDF
Flight info
| Callsign | DLH8EJ |
|---|---|
| Flight time | N/A |
| Altitude | 37000 |
| Route | TUXIL DCT ZOL DCT MITSI P619 NAVIK DCT ATTUS DCT RIMET T157 KERAX KERAX5D |
| Aircraft | A320/M-SDE3FGHIRWY/LB1 |
Departure
| Time | 2026-04-30 20:34 |
|---|---|
| Airport | Bergen Airport, Flesland (ENBR) |
Arrival
| Time | N/A |
|---|---|
| Airport | Frankfurt Main Airport (EDDF) |
| Time | Latitude | Longitude | Altitude | Speed | Heading |
|---|---|---|---|---|---|
| 2026-04-30 20:04 | 60.28893 | 5.22551 | 173 ft | 0 kts | 83° |
| 2026-04-30 20:24 | 60.28892 | 5.22534 | 173 ft | 4 kts | 83° |
| 2026-04-30 20:24 | 60.28889 | 5.22481 | 170 ft | 4 kts | 83° |
| 2026-04-30 20:24 | 60.28886 | 5.22437 | 168 ft | 0 kts | 83° |
| 2026-04-30 20:27 | 60.28887 | 5.22439 | 168 ft | 2 kts | 76° |
| 2026-04-30 20:28 | 60.28934 | 5.22347 | 164 ft | 2 kts | 245° |
| 2026-04-30 20:28 | 60.28980 | 5.22260 | 162 ft | 6 kts | 347° |
| 2026-04-30 20:29 | 60.29126 | 5.22213 | 163 ft | 17 kts | 349° |
| 2026-04-30 20:30 | 60.29646 | 5.22043 | 148 ft | 29 kts | 350° |
| 2026-04-30 20:30 | 60.30138 | 5.21870 | 164 ft | 24 kts | 351° |
| 2026-04-30 20:31 | 60.30540 | 5.21735 | 178 ft | 10 kts | 351° |
| 2026-04-30 20:32 | 60.30616 | 5.21398 | 184 ft | 10 kts | 195° |
| 2026-04-30 20:32 | 60.30567 | 5.21405 | 180 ft | 0 kts | 170° |
| 2026-04-30 20:33 | 60.30548 | 5.21411 | 179 ft | 19 kts | 171° |
| 2026-04-30 20:33 | 60.29296 | 5.21837 | 157 ft | 148 kts | 170° |
| 2026-04-30 20:33 | 60.28195 | 5.22215 | 473 ft | 169 kts | 169° |
| 2026-04-30 20:34 | 60.25788 | 5.23206 | 1480 ft | 200 kts | 167° |
| 2026-04-30 20:34 | 60.22829 | 5.24329 | 2681 ft | 234 kts | 174° |
| 2026-04-30 20:35 | 60.21162 | 5.24767 | 3426 ft | 245 kts | 174° |
| 2026-04-30 20:35 | 60.19456 | 5.25245 | 4314 ft | 251 kts | 174° |
| 2026-04-30 20:35 | 60.15925 | 5.26323 | 6041 ft | 262 kts | 175° |
| 2026-04-30 20:36 | 60.14110 | 5.26904 | 6927 ft | 266 kts | 175° |
| 2026-04-30 20:36 | 60.12252 | 5.27509 | 7781 ft | 269 kts | 175° |
| 2026-04-30 20:36 | 60.08535 | 5.28731 | 9494 ft | 273 kts | 176° |
| 2026-04-30 20:37 | 60.06649 | 5.29275 | 10332 ft | 275 kts | 177° |
| 2026-04-30 20:37 | 60.04721 | 5.29781 | 10846 ft | 289 kts | 177° |
| 2026-04-30 20:37 | 60.02649 | 5.30296 | 11053 ft | 312 kts | 177° |
| 2026-04-30 20:37 | 60.00412 | 5.30856 | 11228 ft | 335 kts | 177° |
| 2026-04-30 20:38 | 59.98058 | 5.31465 | 11659 ft | 346 kts | 176° |
| 2026-04-30 20:38 | 59.95657 | 5.32105 | 12338 ft | 350 kts | 176° |
| 2026-04-30 20:38 | 59.93234 | 5.32756 | 13083 ft | 352 kts | 176° |
| 2026-04-30 20:39 | 59.88348 | 5.34086 | 14497 ft | 357 kts | 176° |
| 2026-04-30 20:39 | 59.85876 | 5.34756 | 15116 ft | 360 kts | 176° |
| 2026-04-30 20:39 | 59.83378 | 5.35423 | 15698 ft | 364 kts | 176° |
| 2026-04-30 20:40 | 59.78302 | 5.36700 | 16819 ft | 371 kts | 178° |
| 2026-04-30 20:40 | 59.75715 | 5.37181 | 17351 ft | 374 kts | 179° |
| 2026-04-30 20:40 | 59.73107 | 5.37584 | 17890 ft | 378 kts | 180° |
| 2026-04-30 20:41 | 59.67811 | 5.38348 | 18903 ft | 385 kts | 180° |
| 2026-04-30 20:41 | 59.65132 | 5.38752 | 19361 ft | 388 kts | 179° |
| 2026-04-30 20:41 | 59.62427 | 5.39254 | 19819 ft | 392 kts | 178° |
| 2026-04-30 20:41 | 59.59699 | 5.39904 | 20268 ft | 396 kts | 176° |
| 2026-04-30 20:42 | 59.56957 | 5.40637 | 20709 ft | 399 kts | 176° |
| 2026-04-30 20:42 | 59.54195 | 5.41401 | 21142 ft | 403 kts | 176° |
| 2026-04-30 20:42 | 59.48605 | 5.42911 | 21997 ft | 408 kts | 176° |
| 2026-04-30 20:43 | 59.45776 | 5.43642 | 22429 ft | 411 kts | 176° |
| 2026-04-30 20:43 | 59.42932 | 5.44361 | 22853 ft | 414 kts | 176° |
| 2026-04-30 20:43 | 59.40069 | 5.45085 | 23266 ft | 417 kts | 175° |
| 2026-04-30 20:44 | 59.34295 | 5.46965 | 24047 ft | 424 kts | 173° |
| 2026-04-30 20:44 | 59.31464 | 5.48049 | 24368 ft | 427 kts | 172° |
| 2026-04-30 20:44 | 59.25638 | 5.50321 | 25033 ft | 431 kts | 172° |
| 2026-04-30 20:45 | 59.19719 | 5.52528 | 25686 ft | 435 kts | 172° |
| 2026-04-30 20:45 | 59.16739 | 5.53595 | 26024 ft | 437 kts | 172° |
| 2026-04-30 20:45 | 59.13738 | 5.54656 | 26347 ft | 439 kts | 172° |
| 2026-04-30 20:46 | 59.04668 | 5.57876 | 27244 ft | 445 kts | 172° |
| 2026-04-30 20:46 | 59.01616 | 5.58971 | 27531 ft | 447 kts | 172° |
| 2026-04-30 20:47 | 58.95471 | 5.61181 | 28098 ft | 451 kts | 172° |
| 2026-04-30 20:47 | 58.92381 | 5.62288 | 28370 ft | 453 kts | 172° |
| 2026-04-30 20:48 | 58.86159 | 5.64529 | 28928 ft | 456 kts | 171° |
| 2026-04-30 20:48 | 58.83051 | 5.65813 | 29316 ft | 456 kts | 169° |
| 2026-04-30 20:48 | 58.79967 | 5.67225 | 29689 ft | 456 kts | 168° |
| 2026-04-30 20:48 | 58.76888 | 5.68710 | 30084 ft | 455 kts | 168° |